Schinveld, Netherlands
Current Conditions -  °F | °C
As of 2:50 PM on Monday 20 Oct 2014 (Local Time) from ETNG Reporting Station
Broken Clouds Broken Clouds  
Wind Chill: 61°   Ceiling: 30000
Heat Index: 61°   Visibility: 6mi
Dew Point: 54°   Wind: 14mph
Humidity: 77%   Direction: 260°W
Pressure: 30.03"   Gusts: NA
Location:  50.97°N, 5.98°E
Report Text: ETNG 201250Z 26012KT 9999 FEW022 SCT045 BKN300 16/12 Q1017 NOSIG
Loading
Personal Weather Stations






























Interactive Weather Map
Tropical Storm Tracking
New forecast layout! Learn more

10-Day Weather Forecast

Advertisements
Track Severe Weather on mobile